createdAt,value
2023-02-22T00:00:43.598Z,53.80
2023-02-22T00:03:12.137Z,53.90
2023-02-22T00:05:39.371Z,53.80
2023-02-22T00:08:11.471Z,54.00
2023-02-22T00:10:38.564Z,53.90
2023-02-22T00:13:07.645Z,54.00
2023-02-22T00:15:35.260Z,54.10
2023-02-22T00:18:03.204Z,54.20
2023-02-22T00:20:30.015Z,55.00
2023-02-22T00:22:56.767Z,54.10
2023-02-22T00:25:25.162Z,53.90
2023-02-22T00:27:52.980Z,54.10
2023-02-22T00:30:29.567Z,54.00
2023-02-22T00:32:57.277Z,54.00
2023-02-22T00:35:29.464Z,53.80
2023-02-22T00:37:59.863Z,53.80
2023-02-22T00:40:32.049Z,54.10
2023-02-22T00:43:00.417Z,54.00
2023-02-22T00:45:28.992Z,54.20
2023-02-22T00:47:56.346Z,54.30
2023-02-22T00:50:25.147Z,54.60
2023-02-22T00:52:52.171Z,54.30
2023-02-22T00:55:21.743Z,54.40
2023-02-22T00:57:49.897Z,54.40
2023-02-22T01:00:26.225Z,54.30
2023-02-22T01:02:53.949Z,54.30
2023-02-22T01:05:22.731Z,54.40
2023-02-22T01:07:50.333Z,54.30
2023-02-22T01:10:22.879Z,54.40
2023-02-22T01:12:50.057Z,54.60
2023-02-22T01:15:24.425Z,54.60
2023-02-22T01:17:53.645Z,54.60
2023-02-22T01:20:22.812Z,54.50
2023-02-22T01:22:51.635Z,54.50
2023-02-22T01:25:21.838Z,54.60
2023-02-22T01:27:50.166Z,54.60
2023-02-22T01:30:21.986Z,54.50
2023-02-22T01:32:51.121Z,54.70
2023-02-22T01:35:21.613Z,54.50
2023-02-22T01:37:48.489Z,54.40
2023-02-22T01:40:22.498Z,54.40
2023-02-22T01:42:53.496Z,55.10
2023-02-22T01:45:34.967Z,54.60
2023-02-22T01:48:09.201Z,54.40
2023-02-22T01:50:40.286Z,54.20
2023-02-22T01:53:09.208Z,53.90
2023-02-22T01:55:36.298Z,54.20
2023-02-22T01:58:05.510Z,54.30
2023-02-22T02:00:33.068Z,54.20
2023-02-22T02:03:06.396Z,54.10
2023-02-22T02:05:35.069Z,54.20
2023-02-22T02:08:14.475Z,54.30
2023-02-22T02:10:42.509Z,54.30
2023-02-22T02:13:10.154Z,54.00
2023-02-22T02:15:37.452Z,54.20
2023-02-22T02:18:10.468Z,54.20
2023-02-22T02:21:05.103Z,53.90
2023-02-22T02:24:17.212Z,53.90
2023-02-22T02:26:50.025Z,54.10
2023-02-22T02:29:27.739Z,54.20
2023-02-22T02:32:22.134Z,54.00
2023-02-22T02:35:25.785Z,53.70
2023-02-22T02:38:02.076Z,53.90
2023-02-22T02:41:05.376Z,54.00
2023-02-22T02:43:42.164Z,53.90
2023-02-22T02:46:19.029Z,54.00
2023-02-22T02:48:56.810Z,54.00
2023-02-22T02:51:27.245Z,54.20
2023-02-22T02:53:54.885Z,54.20
2023-02-22T02:56:23.509Z,54.20
2023-02-22T02:58:55.529Z,54.20
2023-02-22T03:01:49.823Z,54.30
2023-02-22T03:04:44.375Z,54.20
2023-02-22T03:07:31.929Z,53.90
2023-02-22T03:10:33.887Z,54.00
2023-02-22T03:13:09.881Z,54.00
2023-02-22T03:16:14.082Z,54.00
2023-02-22T03:18:53.791Z,54.20
2023-02-22T03:21:33.685Z,54.30
2023-02-22T03:24:27.429Z,54.00
2023-02-22T03:27:21.486Z,54.10
2023-02-22T03:29:51.107Z,54.20
2023-02-22T03:32:23.352Z,54.10
2023-02-22T03:34:58.009Z,54.30
2023-02-22T03:37:31.595Z,54.20
2023-02-22T03:40:00.933Z,54.20
2023-02-22T03:42:33.511Z,54.20
2023-02-22T03:45:04.574Z,53.90
2023-02-22T03:47:41.036Z,54.10
2023-02-22T03:50:26.249Z,54.00
2023-02-22T03:52:53.659Z,53.70
2023-02-22T03:55:20.424Z,53.50
2023-02-22T03:57:54.970Z,53.50
2023-02-22T04:00:25.832Z,53.70
2023-02-22T04:02:52.620Z,53.50
2023-02-22T04:05:19.927Z,53.70
2023-02-22T04:07:46.690Z,54.00
2023-02-22T04:10:16.054Z,54.00
2023-02-22T04:12:42.717Z,53.90
2023-02-22T04:15:15.508Z,54.10
2023-02-22T04:17:42.492Z,53.90
2023-02-22T04:20:10.069Z,54.00
2023-02-22T04:22:36.754Z,54.20
2023-02-22T04:25:03.632Z,54.20
2023-02-22T04:27:30.356Z,53.80
2023-02-22T04:29:57.028Z,53.70
2023-02-22T04:32:23.818Z,54.00
2023-02-22T04:34:50.572Z,53.90
2023-02-22T04:37:17.366Z,53.80
2023-02-22T04:39:44.142Z,53.50
2023-02-22T04:42:11.022Z,53.70
2023-02-22T04:44:37.729Z,53.40
2023-02-22T04:47:04.477Z,53.30
2023-02-22T04:49:31.211Z,53.60
2023-02-22T04:51:57.975Z,53.30
2023-02-22T04:54:24.888Z,53.30
2023-02-22T04:56:52.136Z,53.20
2023-02-22T04:59:19.760Z,53.20
2023-02-22T05:01:46.665Z,53.20
2023-02-22T05:04:13.385Z,53.80
2023-02-22T05:06:40.173Z,53.20
2023-02-22T05:09:06.979Z,53.10
2023-02-22T05:11:33.779Z,53.00
2023-02-22T05:14:00.537Z,53.10
2023-02-22T05:16:27.220Z,53.20
2023-02-22T05:18:54.003Z,52.90
2023-02-22T05:21:20.818Z,53.10
2023-02-22T05:23:47.651Z,53.20
2023-02-22T05:26:14.340Z,53.20
2023-02-22T05:28:41.112Z,54.10
2023-02-22T05:31:07.903Z,53.90
2023-02-22T05:33:34.725Z,53.20
2023-02-22T05:36:01.879Z,54.00
2023-02-22T05:38:28.790Z,54.20
2023-02-22T05:40:56.908Z,54.20
2023-02-22T05:43:23.684Z,54.40
2023-02-22T05:45:50.452Z,54.00
2023-02-22T05:48:17.225Z,54.30
2023-02-22T05:50:44.117Z,54.40
2023-02-22T05:53:10.892Z,54.60
2023-02-22T05:55:37.688Z,54.60
2023-02-22T05:58:05.933Z,54.50
2023-02-22T06:00:32.888Z,54.40
2023-02-22T06:03:02.500Z,54.30
2023-02-22T06:05:30.028Z,54.50
2023-02-22T06:07:57.756Z,54.50
2023-02-22T06:10:25.532Z,54.50
2023-02-22T06:12:53.309Z,54.20
2023-02-22T06:15:22.128Z,54.40
2023-02-22T06:17:49.449Z,54.00
2023-02-22T06:20:18.846Z,54.00
2023-02-22T06:22:47.783Z,53.70
2023-02-22T06:25:17.505Z,53.80
2023-02-22T06:27:44.192Z,53.70
2023-02-22T06:30:13.487Z,53.50
2023-02-22T06:32:40.240Z,53.30
2023-02-22T06:35:07.719Z,53.20
2023-02-22T06:37:34.890Z,53.30
2023-02-22T06:40:05.460Z,53.40
2023-02-22T06:42:33.221Z,53.40
2023-02-22T06:44:59.995Z,53.10
2023-02-22T06:47:26.886Z,53.10
2023-02-22T06:49:55.121Z,51.10
2023-02-22T06:52:22.682Z,52.30
2023-02-22T06:54:50.015Z,52.50
2023-02-22T06:57:17.473Z,52.50
2023-02-22T06:59:44.533Z,53.00
2023-02-22T07:02:15.029Z,53.60
2023-02-22T07:04:43.583Z,53.00
2023-02-22T07:07:10.761Z,52.90
2023-02-22T07:09:37.754Z,53.60
2023-02-22T07:12:04.630Z,53.00
2023-02-22T07:14:31.424Z,53.10
2023-02-22T07:16:58.126Z,53.20
2023-02-22T07:19:27.159Z,53.10
2023-02-22T07:21:59.176Z,53.40
2023-02-22T07:24:28.567Z,53.00
2023-02-22T07:26:55.415Z,53.10
2023-02-22T07:29:22.563Z,53.10
2023-02-22T07:31:49.747Z,53.10
2023-02-22T07:34:16.516Z,53.40
2023-02-22T07:36:43.317Z,53.40
2023-02-22T07:39:11.068Z,53.40
2023-02-22T07:41:37.813Z,53.60
2023-02-22T07:44:04.898Z,53.70
2023-02-22T07:46:31.596Z,53.40
2023-02-22T07:48:58.317Z,53.60
2023-02-22T07:51:25.186Z,53.60
2023-02-22T07:53:52.021Z,53.50
2023-02-22T07:56:18.843Z,52.80
2023-02-22T07:58:45.533Z,53.50
2023-02-22T08:01:12.244Z,52.70
2023-02-22T08:03:39.032Z,52.70
2023-02-22T08:06:07.544Z,52.90
2023-02-22T08:08:34.604Z,53.20
2023-02-22T08:11:01.365Z,53.10
2023-02-22T08:13:28.253Z,53.00
2023-02-22T08:15:55.311Z,53.00
2023-02-22T08:18:25.329Z,53.20
2023-02-22T08:20:53.405Z,53.20
2023-02-22T08:23:22.580Z,53.40
2023-02-22T08:25:49.397Z,53.50
2023-02-22T08:28:19.798Z,53.70
2023-02-22T08:30:46.600Z,53.60
2023-02-22T08:33:16.931Z,53.70
2023-02-22T08:35:43.974Z,53.90
2023-02-22T08:38:37.740Z,53.90
2023-02-22T08:41:04.709Z,54.10
2023-02-22T08:43:31.432Z,54.20
2023-02-22T08:45:58.256Z,54.20
2023-02-22T08:48:25.021Z,54.20
2023-02-22T08:50:51.953Z,54.50
2023-02-22T08:53:19.027Z,54.40
2023-02-22T08:55:46.222Z,54.70
2023-02-22T08:58:13.223Z,54.60
2023-02-22T09:00:41.028Z,54.50
2023-02-22T09:03:11.867Z,54.70
2023-02-22T09:05:38.933Z,54.60
2023-02-22T09:08:06.145Z,54.60
2023-02-22T09:10:34.717Z,54.90
2023-02-22T09:13:02.456Z,54.80
2023-02-22T09:15:30.008Z,55.00
2023-02-22T09:17:56.859Z,55.10
2023-02-22T09:20:24.826Z,55.20
2023-02-22T09:22:52.128Z,55.30
2023-02-22T09:25:20.753Z,55.40
2023-02-22T09:27:52.523Z,55.50
2023-02-22T09:30:32.452Z,55.60
2023-02-22T09:33:17.236Z,55.50
2023-02-22T09:35:46.527Z,55.40
2023-02-22T09:38:19.830Z,55.50
2023-02-22T09:40:50.737Z,55.60
2023-02-22T09:43:35.673Z,55.50
2023-02-22T09:46:27.324Z,55.70
2023-02-22T09:49:04.201Z,55.50
2023-02-22T09:51:42.533Z,55.40
2023-02-22T09:54:25.050Z,55.20
2023-02-22T09:56:57.403Z,55.00
2023-02-22T09:59:29.756Z,54.80
2023-02-22T10:02:06.700Z,54.50
2023-02-22T10:04:46.068Z,54.60
2023-02-22T10:07:34.557Z,53.80
2023-02-22T10:10:06.411Z,53.30
2023-02-22T10:12:48.452Z,53.20
2023-02-22T10:15:41.054Z,52.80
2023-02-22T10:18:39.099Z,52.60
2023-02-22T10:21:31.098Z,52.20
2023-02-22T10:24:30.634Z,52.10
2023-02-22T10:26:59.622Z,51.90
2023-02-22T10:29:35.756Z,52.00
2023-02-22T10:32:05.217Z,51.70
2023-02-22T10:34:46.382Z,51.70
2023-02-22T10:37:30.257Z,51.20
2023-02-22T10:40:17.434Z,50.80
2023-02-22T10:42:44.929Z,50.80
2023-02-22T10:45:20.664Z,50.90
2023-02-22T10:47:47.976Z,50.90
2023-02-22T10:50:15.613Z,50.90
2023-02-22T10:52:42.339Z,50.90
2023-02-22T10:55:16.188Z,51.10
2023-02-22T10:57:47.468Z,50.40
2023-02-22T11:00:26.332Z,50.80
2023-02-22T11:03:01.547Z,50.10
2023-02-22T11:05:40.663Z,49.70
2023-02-22T11:08:28.102Z,49.10
2023-02-22T11:11:16.739Z,49.00
2023-02-22T11:13:43.710Z,48.50
2023-02-22T11:16:26.944Z,48.70
2023-02-22T11:19:24.428Z,48.30
2023-02-22T11:21:56.335Z,48.10
2023-02-22T11:24:24.930Z,47.90
2023-02-22T11:26:58.301Z,47.50
2023-02-22T11:29:33.539Z,47.40
2023-02-22T11:32:21.124Z,47.30
2023-02-22T11:35:03.452Z,47.30
2023-02-22T11:37:36.824Z,46.80
2023-02-22T11:40:19.940Z,46.60
2023-02-22T11:42:47.985Z,46.20
2023-02-22T11:45:24.796Z,46.20
2023-02-22T11:47:55.262Z,46.10
2023-02-22T11:50:28.771Z,45.80
2023-02-22T11:53:11.058Z,45.50
2023-02-22T11:56:28.437Z,44.90
2023-02-22T11:59:27.837Z,44.70
2023-02-22T12:01:59.889Z,44.80
2023-02-22T12:04:39.618Z,44.50
2023-02-22T12:07:25.409Z,43.80
2023-02-22T12:10:05.563Z,43.70
2023-02-22T12:13:05.357Z,43.70
2023-02-22T12:15:39.025Z,43.70
2023-02-22T12:18:33.934Z,43.70
2023-02-22T12:21:06.350Z,43.80
2023-02-22T12:23:44.865Z,43.90
2023-02-22T12:26:26.407Z,43.70
2023-02-22T12:28:59.413Z,43.60
2023-02-22T12:31:35.957Z,43.30
2023-02-22T12:34:27.216Z,43.20
2023-02-22T12:37:30.155Z,43.10
2023-02-22T12:40:10.156Z,42.50
2023-02-22T12:43:07.603Z,42.50
2023-02-22T12:45:46.578Z,42.40
2023-02-22T12:48:22.208Z,42.20
2023-02-22T12:50:56.167Z,42.00
2023-02-22T12:53:31.251Z,41.90
2023-02-22T12:56:31.316Z,41.40
2023-02-22T12:59:08.085Z,41.50
2023-02-22T13:01:45.518Z,41.30
2023-02-22T13:04:20.493Z,41.30
2023-02-22T13:07:04.248Z,41.00
2023-02-22T13:10:01.672Z,40.70
2023-02-22T13:12:52.583Z,40.40
2023-02-22T13:15:29.488Z,40.40
2023-02-22T13:18:17.097Z,40.20
2023-02-22T13:21:13.560Z,39.90
2023-02-22T13:23:52.685Z,40.00
2023-02-22T13:26:33.858Z,39.90
2023-02-22T13:29:13.782Z,40.00
2023-02-22T13:31:53.241Z,39.60
2023-02-22T13:34:31.072Z,39.50
2023-02-22T13:37:06.234Z,39.70
2023-02-22T13:40:02.441Z,39.40
2023-02-22T13:42:49.180Z,39.40
2023-02-22T13:45:40.810Z,39.60
2023-02-22T13:48:28.581Z,39.60
2023-02-22T13:56:44.631Z,39.30
2023-02-22T14:07:54.589Z,39.90
2023-02-22T14:11:34.941Z,39.90
2023-02-22T14:14:36.569Z,39.90
2023-02-22T14:17:40.979Z,39.90
2023-02-22T14:20:53.989Z,40.10
2023-02-22T14:23:52.570Z,40.30
2023-02-22T14:26:47.025Z,40.50
2023-02-22T14:29:18.583Z,40.00
2023-02-22T14:31:46.471Z,40.00
2023-02-22T14:34:21.411Z,39.90
2023-02-22T14:36:56.311Z,39.20
2023-02-22T14:39:39.902Z,39.10
2023-02-22T14:42:18.689Z,38.80
2023-02-22T14:44:58.553Z,39.00
2023-02-22T14:47:49.573Z,38.50
2023-02-22T14:50:23.808Z,38.60
2023-02-22T14:53:03.545Z,38.60
2023-02-22T14:55:33.429Z,38.70
2023-02-22T14:58:02.188Z,38.60
2023-02-22T15:00:43.128Z,38.50
2023-02-22T15:03:21.930Z,38.30
2023-02-22T15:05:49.820Z,38.50
2023-02-22T15:08:18.527Z,38.60
2023-02-22T15:10:47.276Z,38.50
2023-02-22T15:13:15.861Z,38.60
2023-02-22T15:15:47.478Z,38.40
2023-02-22T15:18:30.069Z,38.40
2023-02-22T15:21:04.166Z,38.10
2023-02-22T15:23:41.715Z,38.20
2023-02-22T15:26:18.325Z,38.10
2023-02-22T15:28:45.338Z,38.30
2023-02-22T15:31:16.727Z,38.30
2023-02-22T15:33:43.611Z,38.10
2023-02-22T15:36:16.404Z,38.00
2023-02-22T15:38:49.346Z,37.70
2023-02-22T15:41:32.729Z,37.50
2023-02-22T15:44:22.825Z,37.50
2023-02-22T15:46:50.525Z,37.50
2023-02-22T15:49:19.424Z,37.40
2023-02-22T15:51:51.591Z,37.60
2023-02-22T15:54:27.141Z,37.70
2023-02-22T15:56:56.397Z,37.80
2023-02-22T15:59:30.252Z,37.80
2023-02-22T16:01:59.374Z,38.00
2023-02-22T16:04:30.588Z,38.10
2023-02-22T16:07:17.151Z,38.30
2023-02-22T16:09:51.220Z,38.40
2023-02-22T16:12:20.961Z,38.50
2023-02-22T16:14:48.893Z,38.40
2023-02-22T16:17:32.736Z,38.50
2023-02-22T16:20:01.544Z,38.40
2023-02-22T16:22:36.925Z,38.70
2023-02-22T16:25:18.706Z,38.90
2023-02-22T16:27:50.115Z,38.90
2023-02-22T16:30:25.076Z,39.10
2023-02-22T16:32:57.014Z,39.10
2023-02-22T16:35:28.883Z,39.40
2023-02-22T16:38:01.815Z,39.70
2023-02-22T16:40:35.803Z,39.60
2023-02-22T16:43:06.026Z,39.60
2023-02-22T16:45:32.806Z,39.60
2023-02-22T16:48:00.420Z,39.70
2023-02-22T16:50:27.168Z,39.80
2023-02-22T16:52:55.421Z,39.90
2023-02-22T16:55:22.685Z,39.80
2023-02-22T16:57:50.688Z,39.70
2023-02-22T17:00:31.068Z,39.80
2023-02-22T17:02:59.741Z,40.00
2023-02-22T17:05:26.636Z,40.30
2023-02-22T17:07:53.404Z,40.40
2023-02-22T17:10:20.512Z,40.40
2023-02-22T17:12:49.932Z,40.60
2023-02-22T17:15:28.621Z,40.80
2023-02-22T17:17:56.364Z,41.00
2023-02-22T17:20:32.760Z,40.90
2023-02-22T17:23:02.521Z,41.00
2023-02-22T17:25:40.700Z,41.20
2023-02-22T17:28:08.334Z,42.20
2023-02-22T17:30:35.927Z,41.70
2023-02-22T17:33:05.426Z,41.80
2023-02-22T17:35:38.257Z,42.00
2023-02-22T17:38:06.680Z,42.00
2023-02-22T17:40:35.344Z,42.10
2023-02-22T17:43:02.644Z,42.30
2023-02-22T17:45:30.052Z,42.30
2023-02-22T17:47:59.148Z,42.40
2023-02-22T17:50:26.837Z,42.50
2023-02-22T17:52:54.215Z,42.60
2023-02-22T17:55:21.940Z,42.70
2023-02-22T17:57:58.202Z,42.70
2023-02-22T18:00:33.096Z,42.70
2023-02-22T18:03:09.221Z,42.90
2023-02-22T18:05:50.884Z,43.30
2023-02-22T18:08:17.691Z,43.40
2023-02-22T18:10:45.432Z,43.30
2023-02-22T18:13:18.737Z,43.30
2023-02-22T18:15:46.378Z,43.30
2023-02-22T18:18:13.446Z,43.30
2023-02-22T18:20:47.170Z,43.20
2023-02-22T18:23:17.017Z,43.20
2023-02-22T18:26:03.806Z,43.20
2023-02-22T18:28:35.670Z,43.40
2023-02-22T18:31:10.072Z,43.30
2023-02-22T18:33:36.913Z,43.50
2023-02-22T18:36:04.631Z,43.70
2023-02-22T18:38:31.501Z,43.70
2023-02-22T18:41:06.106Z,44.00
2023-02-22T18:43:36.978Z,44.00
2023-02-22T18:46:11.412Z,44.20
2023-02-22T18:48:39.141Z,44.30
2023-02-22T18:51:09.929Z,44.20
2023-02-22T18:53:38.292Z,44.20
2023-02-22T18:56:06.653Z,44.00
2023-02-22T18:58:33.472Z,44.20
2023-02-22T19:01:01.591Z,44.10
2023-02-22T19:03:29.747Z,44.40
2023-02-22T19:06:02.834Z,44.40
2023-02-22T19:08:32.366Z,44.50
2023-02-22T19:11:08.595Z,44.50
2023-02-22T19:13:35.457Z,44.70
2023-02-22T19:16:03.969Z,44.60
2023-02-22T19:18:31.046Z,44.60
2023-02-22T19:21:02.990Z,44.60
2023-02-22T19:23:34.360Z,44.70
2023-02-22T19:26:02.682Z,44.50
2023-02-22T19:28:34.121Z,44.60
2023-02-22T19:31:33.508Z,44.70
2023-02-22T19:34:03.212Z,44.70
2023-02-22T19:36:30.322Z,45.00
2023-02-22T19:39:01.887Z,44.80
2023-02-22T19:41:30.211Z,45.00
2023-02-22T19:43:57.389Z,45.10
2023-02-22T19:46:27.105Z,45.40
2023-02-22T19:48:55.340Z,45.50
2023-02-22T19:51:27.822Z,45.50
2023-02-22T19:54:02.388Z,45.60
2023-02-22T19:56:31.324Z,45.70
2023-02-22T19:59:01.651Z,45.70
2023-02-22T20:01:31.858Z,45.90
2023-02-22T20:04:04.785Z,45.90
2023-02-22T20:06:41.567Z,46.00
2023-02-22T20:09:11.446Z,45.90
2023-02-22T20:11:38.592Z,46.10
2023-02-22T20:14:06.519Z,46.20
2023-02-22T20:16:35.246Z,46.50
2023-02-22T20:19:02.114Z,46.70
2023-02-22T20:21:33.543Z,46.70
2023-02-22T20:24:02.439Z,46.90
2023-02-22T20:26:31.192Z,46.90
2023-02-22T20:28:58.704Z,47.00
2023-02-22T20:31:25.563Z,47.00
2023-02-22T20:33:57.700Z,47.10
2023-02-22T20:36:25.662Z,47.00
2023-02-22T20:38:54.284Z,47.20
2023-02-22T20:41:27.063Z,47.40
2023-02-22T20:43:55.553Z,47.70
2023-02-22T20:46:23.735Z,47.60
2023-02-22T20:48:57.927Z,47.80
2023-02-22T20:51:25.694Z,48.00
2023-02-22T20:53:52.941Z,47.90
2023-02-22T20:56:22.052Z,48.00
2023-02-22T20:58:49.077Z,48.30
2023-02-22T21:01:19.340Z,48.30
2023-02-22T21:03:46.941Z,48.60
2023-02-22T21:06:17.720Z,48.50
2023-02-22T21:08:49.198Z,48.50
2023-02-22T21:11:17.646Z,48.50
2023-02-22T21:13:44.815Z,48.60
2023-02-22T21:16:27.198Z,48.40
2023-02-22T21:18:56.151Z,48.50
2023-02-22T21:21:23.058Z,48.40
2023-02-22T21:23:51.960Z,48.60
2023-02-22T21:26:23.379Z,48.40
2023-02-22T21:28:51.807Z,48.50
2023-02-22T21:31:21.321Z,48.60
2023-02-22T21:33:53.369Z,48.60
2023-02-22T21:36:21.261Z,48.70
2023-02-22T21:38:53.235Z,48.70
2023-02-22T21:41:21.278Z,49.00
2023-02-22T21:43:51.676Z,49.20
2023-02-22T21:46:18.832Z,49.10
2023-02-22T21:48:48.908Z,49.00
2023-02-22T21:51:31.447Z,49.00
2023-02-22T21:54:03.229Z,49.00
2023-02-22T21:56:32.356Z,49.10
2023-02-22T21:59:05.542Z,49.90
2023-02-22T22:01:35.870Z,49.90
2023-02-22T22:04:03.885Z,49.00
2023-02-22T22:06:32.339Z,49.00
2023-02-22T22:09:05.186Z,48.90
2023-02-22T22:11:31.948Z,49.10
2023-02-22T22:13:59.761Z,49.10
2023-02-22T22:16:29.798Z,49.10
2023-02-22T22:18:57.156Z,49.00
2023-02-22T22:21:24.706Z,49.10
2023-02-22T22:23:55.864Z,49.50
2023-02-22T22:26:24.663Z,49.60
2023-02-22T22:28:54.453Z,49.60
2023-02-22T22:31:23.892Z,49.70
2023-02-22T22:33:50.814Z,49.70
2023-02-22T22:36:21.364Z,49.90
2023-02-22T22:38:49.034Z,49.80
2023-02-22T22:41:19.244Z,49.80
2023-02-22T22:43:46.755Z,49.70
2023-02-22T22:46:18.107Z,49.80
2023-02-22T22:48:47.221Z,50.00
2023-02-22T22:51:23.038Z,50.00
2023-02-22T22:53:51.719Z,50.30
2023-02-22T22:56:21.669Z,50.50
2023-02-22T22:58:49.817Z,50.20
2023-02-22T23:01:20.034Z,50.20
2023-02-22T23:03:54.723Z,50.40
2023-02-22T23:06:43.002Z,50.60
2023-02-22T23:09:18.814Z,50.80
2023-02-22T23:11:53.274Z,50.80
2023-02-22T23:14:23.989Z,51.00
2023-02-22T23:16:53.220Z,50.90
2023-02-22T23:19:20.262Z,50.80
2023-02-22T23:21:49.087Z,51.00
2023-02-22T23:24:19.216Z,50.90
2023-02-22T23:26:49.244Z,50.80
2023-02-22T23:29:21.450Z,50.80
2023-02-22T23:31:50.433Z,50.90
2023-02-22T23:34:20.932Z,50.90
2023-02-22T23:36:48.476Z,50.80
2023-02-22T23:39:18.256Z,50.80
2023-02-22T23:41:44.987Z,50.80
2023-02-22T23:44:17.140Z,51.00
2023-02-22T23:46:47.888Z,51.10
2023-02-22T23:49:20.460Z,50.80
2023-02-22T23:51:48.297Z,51.00
2023-02-22T23:54:19.301Z,51.10
2023-02-22T23:56:53.629Z,50.80
2023-02-22T23:59:20.339Z,50.90
